Time;durP1;ratioP1;P1;durP2;ratioP2;P2;SDS_P1;SDS_P2;PMS_P1;PMS_P2;Temp;Humidity;BMP_temperature;BMP_pressure;BME280_temperature;BME280_humidity;BME280_pressure;Samples;Min_cycle;Max_cycle;Signal;HPM_P1;HPM_P2
2023/09/26 00:02:25;;;;;;;3.15;2.15;;;16.50;99.90;;;;;;4995090;28;20040;-74
2023/09/26 00:04:52;;;;;;;3.25;2.22;;;16.40;99.90;;;;;;4977929;28;20042;-73
2023/09/26 00:07:18;;;;;;;2.50;1.80;;;16.40;99.90;;;;;;4996545;28;20400;-74
2023/09/26 00:09:45;;;;;;;3.15;1.63;;;16.40;99.90;;;;;;5011758;28;20030;-74
2023/09/26 00:12:11;;;;;;;3.28;1.98;;;16.40;99.90;;;;;;4978809;28;20377;-73
2023/09/26 00:14:37;;;;;;;4.15;1.90;;;16.30;99.90;;;;;;4982155;28;20413;-74
2023/09/26 00:17:05;;;;;;;2.58;1.83;;;16.30;99.90;;;;;;4997770;28;20034;-73
2023/09/26 00:19:31;;;;;;;2.58;1.50;;;16.30;99.90;;;;;;4980054;28;20034;-74
2023/09/26 00:21:58;;;;;;;2.97;1.92;;;16.30;99.90;;;;;;4996834;28;20473;-74
2023/09/26 00:24:24;;;;;;;2.67;1.80;;;16.20;99.90;;;;;;4995532;28;20038;-74
2023/09/26 00:26:50;;;;;;;3.47;2.25;;;16.20;99.90;;;;;;4998799;28;20527;-74
2023/09/26 00:29:17;;;;;;;3.67;2.05;;;16.10;99.90;;;;;;4964863;28;20038;-74
2023/09/26 00:31:43;;;;;;;3.00;1.88;;;16.00;99.90;;;;;;4962172;28;20468;-74
2023/09/26 00:34:10;;;;;;;3.05;1.80;;;15.90;99.90;;;;;;4995287;28;20032;-74
2023/09/26 00:36:37;;;;;;;1.60;1.20;;;15.80;99.90;;;;;;4980503;28;20389;-73
2023/09/26 00:39:03;;;;;;;3.92;1.90;;;15.70;99.90;;;;;;4996920;28;20419;-74
2023/09/26 00:41:30;;;;;;;2.67;1.67;;;15.60;99.90;;;;;;4994445;28;20030;-74
2023/09/26 00:43:56;;;;;;;2.78;1.40;;;15.50;99.90;;;;;;4994451;28;20106;-73
2023/09/26 00:46:23;;;;;;;2.55;1.40;;;15.40;99.90;;;;;;4963732;28;20046;-73
2023/09/26 00:48:51;;;;;;;2.17;1.42;;;15.40;99.90;;;;;;4997868;28;20040;-73
2023/09/26 00:51:17;;;;;;;2.15;1.48;;;15.30;99.90;;;;;;4985917;28;20033;-73
2023/09/26 00:53:44;;;;;;;2.47;1.30;;;15.20;99.90;;;;;;4980298;28;20038;-73
2023/09/26 00:56:10;;;;;;;2.17;1.30;;;15.20;99.90;;;;;;4997016;28;20484;-74
2023/09/26 00:58:39;;;;;;;3.42;1.48;;;15.10;99.90;;;;;;4999551;28;20030;-73
2023/09/26 01:01:07;;;;;;;3.38;2.20;;;15.00;99.90;;;;;;4996279;28;20424;-74
2023/09/26 01:03:34;;;;;;;2.90;1.75;;;14.90;99.90;;;;;;4998123;28;20366;-74
2023/09/26 01:06:02;;;;;;;3.63;2.42;;;14.90;99.90;;;;;;5012802;28;20051;-73
2023/09/26 01:08:30;;;;;;;4.05;2.10;;;14.80;99.90;;;;;;4970084;28;20038;-74
2023/09/26 01:10:58;;;;;;;2.63;1.67;;;14.80;99.90;;;;;;5013314;28;20038;-73
2023/09/26 01:13:25;;;;;;;2.85;1.75;;;14.70;99.90;;;;;;4979459;28;20397;-73
2023/09/26 01:15:51;;;;;;;3.08;1.73;;;14.70;99.90;;;;;;4998675;28;20042;-74
2023/09/26 01:18:23;;;;;;;3.40;1.42;;;14.70;99.90;;;;;;4982225;28;20034;-73
2023/09/26 01:20:51;;;;;;;4.07;2.45;;;14.70;99.90;;;;;;4996937;28;20058;-73
2023/09/26 01:23:21;;;;;;;2.90;1.63;;;14.60;99.90;;;;;;4981932;28;20122;-73
2023/09/26 01:25:47;;;;;;;2.53;2.00;;;14.60;99.90;;;;;;4996956;28;20033;-73
2023/09/26 01:28:16;;;;;;;2.20;1.48;;;14.50;99.90;;;;;;5014190;28;20025;-73
2023/09/26 01:30:42;;;;;;;2.20;1.35;;;14.50;99.90;;;;;;4998308;28;20061;-73
2023/09/26 01:33:12;;;;;;;2.85;1.30;;;14.50;99.90;;;;;;4997748;28;20378;-73
2023/09/26 01:35:38;;;;;;;2.33;1.27;;;14.50;99.90;;;;;;4998816;28;20036;-73
2023/09/26 01:38:05;;;;;;;2.13;1.08;;;14.50;99.90;;;;;;4997477;28;20037;-73
2023/09/26 01:40:32;;;;;;;3.00;1.58;;;14.40;99.90;;;;;;4981363;28;20057;-73
2023/09/26 01:42:58;;;;;;;2.80;1.75;;;14.50;99.90;;;;;;4997135;28;20034;-73
2023/09/26 01:45:24;;;;;;;2.47;1.60;;;14.40;99.90;;;;;;4996649;28;20046;-73
2023/09/26 01:47:51;;;;;;;3.03;1.52;;;14.50;99.90;;;;;;4998650;28;20608;-73
2023/09/26 01:50:19;;;;;;;3.15;1.77;;;14.40;99.90;;;;;;4997723;28;20034;-73
2023/09/26 01:52:46;;;;;;;2.90;1.98;;;14.40;99.90;;;;;;4964641;28;20041;-72
2023/09/26 01:55:16;;;;;;;2.30;1.50;;;14.40;99.90;;;;;;4997049;28;20524;-72
2023/09/26 01:57:42;;;;;;;3.05;1.65;;;14.40;99.90;;;;;;4996170;28;20056;-72
2023/09/26 02:00:11;;;;;;;4.05;1.95;;;14.40;99.90;;;;;;4981926;28;20045;-73
2023/09/26 02:02:39;;;;;;;2.60;1.50;;;14.30;99.90;;;;;;4997471;28;20529;-73
2023/09/26 02:05:07;;;;;;;2.42;1.70;;;14.40;99.90;;;;;;4998902;28;20048;-73
2023/09/26 02:07:34;;;;;;;2.58;1.98;;;14.40;99.90;;;;;;4967094;28;20034;-73
2023/09/26 02:10:03;;;;;;;2.65;1.67;;;14.40;99.90;;;;;;4999603;28;20026;-73
2023/09/26 02:12:31;;;;;;;3.03;2.10;;;14.40;99.90;;;;;;4984404;28;20041;-73
2023/09/26 02:15:00;;;;;;;2.38;1.35;;;14.40;99.90;;;;;;4981007;28;20046;-72
2023/09/26 02:17:28;;;;;;;4.05;1.95;;;14.50;99.90;;;;;;4982423;28;20569;-73
2023/09/26 02:19:57;;;;;;;3.22;1.83;;;14.40;99.90;;;;;;4965775;28;20392;-73
2023/09/26 02:22:24;;;;;;;3.33;2.58;;;14.40;99.90;;;;;;4996819;28;20038;-73
2023/09/26 02:24:53;;;;;;;3.03;2.65;;;14.40;99.90;;;;;;4964427;28;20052;-73
2023/09/26 02:27:20;;;;;;;2.67;1.95;;;14.40;99.90;;;;;;4997029;28;20661;-72
2023/09/26 02:29:46;;;;;;;2.92;1.85;;;14.40;99.90;;;;;;5013508;28;20038;-73
2023/09/26 02:32:13;;;;;;;2.75;2.00;;;14.40;99.90;;;;;;4980563;28;20053;-72
2023/09/26 02:34:39;;;;;;;4.00;2.22;;;14.40;99.90;;;;;;4998890;28;20415;-73
2023/09/26 02:37:05;;;;;;;3.05;1.90;;;14.30;99.90;;;;;;4965706;28;20037;-73
2023/09/26 02:39:32;;;;;;;4.82;1.92;;;14.30;99.90;;;;;;4996793;28;20030;-73
2023/09/26 02:41:58;;;;;;;3.13;2.53;;;14.30;99.90;;;;;;4996095;28;20038;-73
2023/09/26 02:44:25;;;;;;;3.58;2.50;;;14.30;99.90;;;;;;4979595;28;20057;-72
2023/09/26 02:46:52;;;;;;;3.42;2.20;;;14.30;99.90;;;;;;4997916;28;20045;-73
2023/09/26 02:49:18;;;;;;;3.35;2.45;;;14.30;99.90;;;;;;4980461;28;20038;-73
2023/09/26 02:51:45;;;;;;;3.80;2.33;;;14.20;99.90;;;;;;4963608;28;20041;-73
2023/09/26 02:54:11;;;;;;;2.85;2.22;;;14.20;99.90;;;;;;4980936;28;20404;-73
2023/09/26 02:56:38;;;;;;;4.45;2.05;;;14.20;99.90;;;;;;4982873;28;20034;-73
2023/09/26 02:59:04;;;;;;;3.60;2.45;;;14.20;99.90;;;;;;4980834;28;20026;-73
2023/09/26 03:01:31;;;;;;;4.20;2.30;;;14.20;99.90;;;;;;4982627;28;20048;-72
2023/09/26 03:03:57;;;;;;;3.13;2.83;;;14.20;99.90;;;;;;4996171;28;20042;-73
2023/09/26 03:06:24;;;;;;;3.55;2.35;;;14.20;99.90;;;;;;4981496;28;20457;-73
2023/09/26 03:08:50;;;;;;;4.32;2.95;;;14.10;99.90;;;;;;4997969;28;20033;-73
2023/09/26 03:11:17;;;;;;;4.18;2.50;;;14.10;99.90;;;;;;4996419;28;20043;-73
2023/09/26 03:13:43;;;;;;;3.42;2.35;;;14.10;99.90;;;;;;4982076;28;20401;-73
2023/09/26 03:16:13;;;;;;;3.72;3.05;;;14.00;99.90;;;;;;4996285;28;20488;-73
2023/09/26 03:18:40;;;;;;;3.45;2.58;;;14.00;99.90;;;;;;4979727;28;20065;-73
2023/09/26 03:21:07;;;;;;;3.38;2.88;;;14.00;99.90;;;;;;5014111;28;20421;-74
2023/09/26 03:23:33;;;;;;;4.35;2.88;;;13.90;99.90;;;;;;4996448;28;20652;-73
2023/09/26 03:26:00;;;;;;;4.30;3.30;;;13.90;99.90;;;;;;4995847;28;20038;-73
2023/09/26 03:28:26;;;;;;;3.30;2.42;;;13.90;99.90;;;;;;5010523;28;20042;-73
2023/09/26 03:30:54;;;;;;;3.28;2.85;;;13.90;99.90;;;;;;4980260;28;20103;-73
2023/09/26 03:33:20;;;;;;;3.58;2.80;;;13.90;99.90;;;;;;4962795;28;20038;-73
2023/09/26 03:35:47;;;;;;;3.83;2.97;;;13.90;99.90;;;;;;4982044;28;20034;-73
2023/09/26 03:38:13;;;;;;;3.38;2.70;;;13.90;99.90;;;;;;4980358;28;20030;-73
2023/09/26 03:40:39;;;;;;;4.10;2.80;;;13.80;99.90;;;;;;4995206;28;20029;-73
2023/09/26 03:43:06;;;;;;;3.55;3.00;;;13.80;99.90;;;;;;4977379;28;20033;-73
2023/09/26 03:45:32;;;;;;;2.85;2.08;;;13.80;99.90;;;;;;4993938;28;20050;-72
2023/09/26 03:47:59;;;;;;;2.72;2.22;;;13.70;99.90;;;;;;4970494;28;20053;-73
2023/09/26 03:50:25;;;;;;;4.18;2.53;;;13.70;99.90;;;;;;4980935;28;20034;-73
2023/09/26 03:52:51;;;;;;;2.90;2.13;;;13.70;99.90;;;;;;4994268;28;20516;-73
2023/09/26 03:55:18;;;;;;;3.70;2.63;;;13.70;99.90;;;;;;4978257;28;20033;-73
2023/09/26 03:57:45;;;;;;;3.00;2.67;;;13.70;99.90;;;;;;4994393;28;20030;-73
2023/09/26 04:00:16;;;;;;;4.90;2.88;;;13.60;99.90;;;;;;4978854;28;20042;-73
2023/09/26 04:02:45;;;;;;;3.65;3.25;;;13.60;99.90;;;;;;4988908;28;20054;-73
2023/09/26 04:05:11;;;;;;;3.50;2.83;;;13.60;99.90;;;;;;4979111;28;20444;-73
2023/09/26 04:07:38;;;;;;;4.75;3.25;;;13.50;99.90;;;;;;4995126;28;20037;-73
2023/09/26 04:10:05;;;;;;;3.47;2.72;;;13.50;99.90;;;;;;4994729;28;20468;-73
2023/09/26 04:12:32;;;;;;;4.15;3.40;;;13.50;99.90;;;;;;4979938;28;20030;-73
2023/09/26 04:14:58;;;;;;;4.43;2.72;;;13.40;99.90;;;;;;4997609;28;20041;-73
2023/09/26 04:17:27;;;;;;;3.35;2.40;;;13.40;99.90;;;;;;5011427;28;21179;-73
2023/09/26 04:19:54;;;;;;;3.40;2.72;;;13.40;99.90;;;;;;4996487;28;20026;-73
2023/09/26 04:22:20;;;;;;;3.67;2.70;;;13.40;99.90;;;;;;4982027;28;20026;-72
2023/09/26 04:24:47;;;;;;;4.75;3.40;;;13.40;99.90;;;;;;4982263;28;20378;-73
2023/09/26 04:27:13;;;;;;;3.88;3.22;;;13.40;99.90;;;;;;4999252;28;20034;-73
2023/09/26 04:29:39;;;;;;;3.45;3.13;;;13.40;99.90;;;;;;4998997;28;20033;-73
2023/09/26 04:32:06;;;;;;;3.35;3.05;;;13.30;99.90;;;;;;4982438;28;20041;-73
2023/09/26 04:34:32;;;;;;;4.07;3.50;;;13.30;99.90;;;;;;4999188;28;20700;-73
2023/09/26 04:36:58;;;;;;;3.88;3.13;;;13.30;99.90;;;;;;4998793;28;20038;-73
2023/09/26 04:39:25;;;;;;;3.90;3.50;;;13.30;99.90;;;;;;4998860;28;20030;-73
2023/09/26 04:41:52;;;;;;;5.13;3.85;;;13.30;99.90;;;;;;4998511;28;20042;-73
2023/09/26 04:44:18;;;;;;;3.60;3.25;;;13.30;99.90;;;;;;4998020;28;20038;-73
2023/09/26 04:46:45;;;;;;;4.57;3.63;;;13.20;99.90;;;;;;5001426;28;20049;-74
2023/09/26 04:49:11;;;;;;;4.30;3.22;;;13.20;99.90;;;;;;4998858;28;20029;-73
2023/09/26 04:51:38;;;;;;;4.72;3.00;;;13.20;99.90;;;;;;4999685;28;20033;-73
2023/09/26 04:54:05;;;;;;;3.50;2.88;;;13.20;99.90;;;;;;4998934;28;20037;-73
2023/09/26 04:56:31;;;;;;;4.38;2.90;;;13.20;99.90;;;;;;4982112;28;20041;-73
2023/09/26 04:58:58;;;;;;;3.22;2.90;;;13.20;99.90;;;;;;4965700;28;20037;-73
2023/09/26 05:01:25;;;;;;;3.65;3.00;;;13.20;99.90;;;;;;4997633;28;20033;-73
2023/09/26 05:03:52;;;;;;;3.40;3.08;;;13.10;99.90;;;;;;4997885;28;20041;-73
2023/09/26 05:06:18;;;;;;;3.45;2.72;;;13.10;99.90;;;;;;4999020;28;20029;-73
2023/09/26 05:08:45;;;;;;;4.13;3.35;;;13.10;99.90;;;;;;4997910;28;20640;-73
2023/09/26 05:11:14;;;;;;;5.50;4.20;;;13.10;99.90;;;;;;4996814;28;20030;-74
2023/09/26 05:13:42;;;;;;;4.45;3.67;;;13.10;99.90;;;;;;4998729;28;20026;-74
2023/09/26 05:16:10;;;;;;;4.05;3.22;;;13.00;99.90;;;;;;4995912;28;20036;-74
2023/09/26 05:18:37;;;;;;;4.70;3.95;;;13.00;99.90;;;;;;4999805;28;20044;-74
2023/09/26 05:21:05;;;;;;;5.20;3.90;;;13.00;99.90;;;;;;5014272;28;20030;-74
2023/09/26 05:23:32;;;;;;;5.38;4.20;;;13.00;99.90;;;;;;4997725;28;20473;-74
2023/09/26 05:26:06;;;;;;;4.38;3.70;;;13.00;99.90;;;;;;5013168;28;20038;-75
2023/09/26 05:28:33;;;;;;;5.88;3.65;;;13.00;99.90;;;;;;4997054;28;20493;-74
2023/09/26 05:30:59;;;;;;;6.13;4.40;;;13.00;99.90;;;;;;4996607;28;20041;-74
2023/09/26 05:33:25;;;;;;;4.38;3.97;;;13.00;99.90;;;;;;4996595;28;20045;-74
2023/09/26 05:35:54;;;;;;;5.90;3.88;;;13.00;99.90;;;;;;4966432;28;20045;-74
2023/09/26 05:38:22;;;;;;;4.35;3.95;;;13.00;99.90;;;;;;4998028;28;20069;-73
2023/09/26 05:40:50;;;;;;;5.13;3.85;;;13.00;99.90;;;;;;4996467;28;20030;-74
2023/09/26 05:43:16;;;;;;;5.40;3.85;;;13.00;99.90;;;;;;4981009;28;20503;-74
2023/09/26 05:45:43;;;;;;;4.28;3.58;;;13.00;99.90;;;;;;4981279;28;20042;-74
2023/09/26 05:48:10;;;;;;;4.93;4.10;;;13.00;99.90;;;;;;4997550;28;20388;-74
2023/09/26 05:50:36;;;;;;;4.25;3.85;;;13.00;99.90;;;;;;4998970;28;20033;-73
2023/09/26 05:53:03;;;;;;;5.15;4.15;;;13.10;99.90;;;;;;4996583;28;20042;-73
2023/09/26 05:55:29;;;;;;;4.97;3.42;;;13.10;99.90;;;;;;4984924;28;20042;-74
2023/09/26 05:57:56;;;;;;;4.22;3.45;;;13.20;99.90;;;;;;4996821;28;20054;-73
2023/09/26 06:00:22;;;;;;;4.05;3.55;;;13.30;99.90;;;;;;4998044;28;20042;-73
2023/09/26 06:02:51;;;;;;;6.97;3.78;;;13.40;99.90;;;;;;4997428;28;20049;-73
2023/09/26 06:05:17;;;;;;;6.35;3.85;;;13.40;99.90;;;;;;5013869;28;20396;-74
2023/09/26 06:07:44;;;;;;;4.40;3.63;;;13.50;99.90;;;;;;4980569;28;20037;-74
2023/09/26 06:10:11;;;;;;;4.57;3.83;;;13.50;99.90;;;;;;4997031;28;20026;-73
2023/09/26 06:12:38;;;;;;;5.05;3.83;;;13.50;99.90;;;;;;4995903;28;20038;-73
2023/09/26 06:15:06;;;;;;;5.05;3.70;;;13.50;99.90;;;;;;4997023;28;20053;-74
2023/09/26 06:17:33;;;;;;;4.88;3.65;;;13.50;99.90;;;;;;5012657;28;20030;-72
2023/09/26 06:20:00;;;;;;;5.82;3.95;;;13.50;99.90;;;;;;4997188;28;20045;-75
2023/09/26 06:22:27;;;;;;;4.28;3.63;;;13.60;99.90;;;;;;4982287;28;20037;-75
2023/09/26 06:24:53;;;;;;;6.13;3.72;;;13.60;99.90;;;;;;4996211;28;20041;-74
2023/09/26 06:27:20;;;;;;;3.65;3.35;;;13.70;99.90;;;;;;4979378;28;20034;-75
2023/09/26 06:29:46;;;;;;;4.97;4.47;;;13.70;99.90;;;;;;4981061;28;20026;-72
2023/09/26 06:32:13;;;;;;;4.18;3.78;;;13.70;99.90;;;;;;4994910;28;20034;-74
2023/09/26 06:34:40;;;;;;;5.10;3.67;;;13.80;99.90;;;;;;4980045;28;20049;-74
2023/09/26 06:37:06;;;;;;;5.32;3.40;;;13.80;99.90;;;;;;4987868;28;20401;-74
2023/09/26 06:39:33;;;;;;;5.20;4.47;;;13.90;99.90;;;;;;5007081;28;20069;-74
2023/09/26 06:41:59;;;;;;;6.15;5.20;;;14.00;99.90;;;;;;5007160;28;20033;-74
2023/09/26 06:44:28;;;;;;;4.70;3.85;;;14.00;99.90;;;;;;4995022;28;20488;-74
2023/09/26 06:46:55;;;;;;;6.53;4.88;;;14.00;99.90;;;;;;4963767;28;20038;-73
2023/09/26 06:49:21;;;;;;;5.78;4.05;;;14.00;99.90;;;;;;4977658;28;20030;-73
2023/09/26 06:51:48;;;;;;;4.38;3.80;;;14.10;99.90;;;;;;5010339;28;20030;-74
2023/09/26 06:54:14;;;;;;;7.05;4.35;;;14.10;99.90;;;;;;4979047;28;20903;-73
2023/09/26 06:56:40;;;;;;;5.03;4.05;;;14.10;99.90;;;;;;4996088;28;20025;-74
2023/09/26 06:59:08;;;;;;;5.95;3.22;;;14.20;99.90;;;;;;4995721;28;20026;-75
2023/09/26 07:01:34;;;;;;;6.18;4.50;;;14.20;99.90;;;;;;4975608;28;20034;-74
2023/09/26 07:04:01;;;;;;;4.15;3.58;;;14.30;99.90;;;;;;4995452;28;20396;-75
2023/09/26 07:06:27;;;;;;;5.38;3.60;;;14.30;99.90;;;;;;4963742;28;20512;-73
2023/09/26 07:08:55;;;;;;;5.95;4.07;;;14.40;99.90;;;;;;4998538;28;20484;-73
2023/09/26 07:11:22;;;;;;;6.38;4.57;;;14.50;99.90;;;;;;4993735;28;20030;-73
2023/09/26 07:13:48;;;;;;;5.75;4.60;;;14.60;99.90;;;;;;4995724;28;20038;-73
2023/09/26 07:16:15;;;;;;;6.85;5.00;;;14.70;99.90;;;;;;4996599;28;20026;-73
2023/09/26 07:18:42;;;;;;;4.78;4.15;;;14.80;99.90;;;;;;4979011;28;20030;-73
2023/09/26 07:21:09;;;;;;;6.68;4.43;;;15.00;99.90;;;;;;5010987;28;20030;-74
2023/09/26 07:23:37;;;;;;;4.13;3.72;;;15.10;99.90;;;;;;4994462;28;20038;-73
2023/09/26 07:26:13;;;;;;;5.05;4.55;;;15.20;99.90;;;;;;4978317;28;20140;-73
2023/09/26 07:28:47;;;;;;;7.60;5.07;;;15.20;99.90;;;;;;4979163;28;20417;-74
2023/09/26 07:31:15;;;;;;;5.70;4.25;;;15.30;99.90;;;;;;5011140;28;20046;-73
2023/09/26 07:33:43;;;;;;;8.02;4.35;;;15.40;99.90;;;;;;4994445;28;20038;-73
2023/09/26 07:36:10;;;;;;;4.32;3.47;;;15.50;99.90;;;;;;4979528;28;20044;-73
2023/09/26 07:38:37;;;;;;;4.78;3.58;;;15.60;99.90;;;;;;4979055;28;20033;-73
2023/09/26 07:41:04;;;;;;;5.88;3.83;;;15.70;99.90;;;;;;4979336;28;20528;-73
2023/09/26 07:43:32;;;;;;;4.22;3.65;;;15.90;99.90;;;;;;4976881;28;20037;-74
2023/09/26 07:46:06;;;;;;;3.95;3.25;;;16.00;99.90;;;;;;4978589;28;20049;-74
2023/09/26 07:48:34;;;;;;;3.85;3.40;;;16.10;99.90;;;;;;4979013;28;20042;-73
2023/09/26 07:51:01;;;;;;;5.07;3.38;;;16.20;99.90;;;;;;4994818;28;20034;-73
2023/09/26 07:53:28;;;;;;;5.07;3.80;;;16.30;99.90;;;;;;4993952;28;20056;-73
2023/09/26 07:55:58;;;;;;;4.68;3.67;;;16.30;99.90;;;;;;4963074;28;20049;-73
2023/09/26 07:58:25;;;;;;;5.43;4.70;;;16.40;99.90;;;;;;4995863;28;20026;-74
2023/09/26 08:00:58;;;;;;;6.25;4.22;;;16.50;99.90;;;;;;4995029;28;20377;-74
2023/09/26 08:03:24;;;;;;;3.50;3.00;;;16.50;99.90;;;;;;4981244;28;20029;-73
2023/09/26 08:06:01;;;;;;;5.15;4.10;;;16.60;99.90;;;;;;4979326;28;20034;-73
2023/09/26 08:08:31;;;;;;;4.05;2.55;;;16.60;99.90;;;;;;5012137;28;20030;-73
2023/09/26 08:11:10;;;;;;;5.57;3.60;;;16.70;99.90;;;;;;4995857;28;20039;-73
2023/09/26 08:13:38;;;;;;;7.85;3.95;;;16.80;99.90;;;;;;4998922;28;20029;-74
2023/09/26 08:16:04;;;;;;;6.63;4.28;;;16.90;99.90;;;;;;4979447;28;20048;-73
2023/09/26 08:18:31;;;;;;;4.00;3.05;;;17.00;99.90;;;;;;4979411;28;20037;-74
2023/09/26 08:20:58;;;;;;;4.68;3.22;;;17.00;99.90;;;;;;4997902;28;20368;-74
2023/09/26 08:23:28;;;;;;;6.30;4.13;;;17.10;99.90;;;;;;4963672;28;20055;-73
2023/09/26 08:25:56;;;;;;;4.25;3.22;;;17.20;99.90;;;;;;4962595;28;20042;-73
2023/09/26 08:28:23;;;;;;;5.43;4.88;;;17.20;99.90;;;;;;4978413;28;20037;-73
2023/09/26 08:31:02;;;;;;;9.25;6.05;;;17.30;99.90;;;;;;4997592;28;20022;-74
2023/09/26 08:33:29;;;;;;;15.23;10.90;;;17.40;99.90;;;;;;4980118;28;20512;-73
2023/09/26 08:35:55;;;;;;;16.23;9.63;;;17.40;99.90;;;;;;4996860;28;20037;-73
2023/09/26 08:38:21;;;;;;;12.10;7.85;;;17.60;99.90;;;;;;4996215;28;20026;-74
2023/09/26 08:40:51;;;;;;;8.43;6.13;;;17.70;99.90;;;;;;4994705;28;20365;-75
2023/09/26 08:43:25;;;;;;;10.23;4.88;;;17.80;99.90;;;;;;4993152;28;20531;-74
2023/09/26 08:45:53;;;;;;;8.30;4.28;;;17.90;99.90;;;;;;4992381;28;20421;-73
2023/09/26 08:48:20;;;;;;;5.40;3.28;;;18.00;99.90;;;;;;4994138;28;20030;-74
2023/09/26 08:50:46;;;;;;;4.38;3.35;;;18.10;99.90;;;;;;4994279;28;20030;-73
2023/09/26 08:53:13;;;;;;;7.22;4.43;;;18.30;99.90;;;;;;4994068;28;20022;-73
2023/09/26 08:55:39;;;;;;;5.60;3.55;;;18.40;99.90;;;;;;4995259;28;20038;-73
2023/09/26 08:58:07;;;;;;;5.43;3.60;;;18.40;99.90;;;;;;4994958;28;20034;-73
2023/09/26 09:00:34;;;;;;;5.05;3.45;;;18.40;99.90;;;;;;4978616;28;20029;-73
2023/09/26 09:03:00;;;;;;;3.85;3.10;;;18.40;99.90;;;;;;4977836;28;20022;-73
2023/09/26 09:05:26;;;;;;;5.20;3.85;;;18.50;99.90;;;;;;5005761;28;20483;-74
2023/09/26 09:07:53;;;;;;;4.15;3.67;;;18.60;99.90;;;;;;4997738;28;20092;-73
2023/09/26 09:10:19;;;;;;;7.80;5.20;;;18.70;99.90;;;;;;5000591;28;20014;-73
2023/09/26 09:12:50;;;;;;;4.22;3.20;;;18.80;99.90;;;;;;4981434;28;20029;-73
2023/09/26 09:15:20;;;;;;;4.32;3.88;;;18.90;99.90;;;;;;4982700;28;20017;-73
2023/09/26 09:17:48;;;;;;;4.15;3.28;;;19.00;99.90;;;;;;4982403;28;20064;-74
2023/09/26 09:20:29;;;;;;;3.80;3.35;;;19.20;99.90;;;;;;4997535;28;20036;-74
2023/09/26 09:23:04;;;;;;;4.57;2.67;;;19.40;99.90;;;;;;4996782;28;20040;-74
2023/09/26 09:25:36;;;;;;;5.38;3.92;;;19.50;99.90;;;;;;4981161;28;21007;-73
2023/09/26 09:28:04;;;;;;;8.23;4.47;;;19.60;99.90;;;;;;4970661;28;20034;-74
2023/09/26 09:30:44;;;;;;;4.05;3.42;;;19.70;99.90;;;;;;4980103;28;20025;-74
2023/09/26 09:33:13;;;;;;;5.18;3.55;;;19.90;99.90;;;;;;4994764;28;20033;-74
2023/09/26 09:35:39;;;;;;;4.07;3.03;;;20.00;99.90;;;;;;4997219;28;20033;-74
2023/09/26 09:38:12;;;;;;;4.88;3.92;;;20.20;99.90;;;;;;4999022;28;20029;-74
2023/09/26 09:40:39;;;;;;;4.30;2.90;;;20.40;99.90;;;;;;4997806;28;20036;-73
2023/09/26 09:43:05;;;;;;;3.05;2.72;;;20.50;99.90;;;;;;5012581;28;20021;-74
2023/09/26 09:45:34;;;;;;;5.35;3.60;;;20.70;99.90;;;;;;4997823;28;20038;-74
2023/09/26 09:48:03;;;;;;;3.83;2.70;;;20.90;99.90;;;;;;4998429;28;20045;-73
2023/09/26 09:50:32;;;;;;;3.70;2.97;;;21.10;99.90;;;;;;4998930;28;20025;-73
2023/09/26 09:53:02;;;;;;;3.95;3.55;;;21.20;99.90;;;;;;4998436;28;20182;-74
2023/09/26 09:55:39;;;;;;;3.40;2.70;;;21.40;99.90;;;;;;4999179;28;20046;-73
2023/09/26 09:58:11;;;;;;;2.90;2.60;;;21.50;99.90;;;;;;4981545;28;20033;-74
2023/09/26 10:00:39;;;;;;;3.42;2.75;;;21.60;99.90;;;;;;4979937;28;20029;-74
2023/09/26 10:03:06;;;;;;;5.32;3.22;;;21.80;99.90;;;;;;4996815;28;22198;-73
2023/09/26 10:05:34;;;;;;;3.95;3.05;;;21.90;99.90;;;;;;4966725;28;20038;-73
2023/09/26 10:08:03;;;;;;;3.88;2.60;;;22.00;99.90;;;;;;4981706;28;20033;-74
2023/09/26 10:10:32;;;;;;;5.30;2.70;;;22.10;99.90;;;;;;4996434;28;20025;-73
2023/09/26 10:12:59;;;;;;;4.38;2.58;;;22.30;99.90;;;;;;4995629;28;20365;-74
2023/09/26 10:15:26;;;;;;;4.30;1.83;;;22.60;99.90;;;;;;4982974;28;20472;-74
2023/09/26 10:17:52;;;;;;;4.03;2.20;;;22.80;99.90;;;;;;4983073;28;20135;-75
2023/09/26 10:20:19;;;;;;;3.65;2.28;;;23.00;99.90;;;;;;4994345;28;20044;-74
2023/09/26 10:22:45;;;;;;;4.28;2.03;;;23.30;99.90;;;;;;4999087;28;20033;-76
2023/09/26 10:25:19;;;;;;;4.07;2.45;;;23.50;99.90;;;;;;4996790;28;20034;-76
2023/09/26 10:27:47;;;;;;;3.40;2.42;;;23.70;99.90;;;;;;4967537;28;20034;-74
2023/09/26 10:30:14;;;;;;;3.38;2.08;;;23.90;99.90;;;;;;4996152;28;20030;-74
2023/09/26 10:32:42;;;;;;;3.80;3.45;;;24.00;99.90;;;;;;4979924;28;20037;-75
2023/09/26 10:35:15;;;;;;;5.40;3.97;;;24.00;99.90;;;;;;4995645;28;21002;-76
2023/09/26 10:37:48;;;;;;;3.85;3.42;;;24.10;99.90;;;;;;4996698;28;20045;-73
2023/09/26 10:40:16;;;;;;;5.53;3.10;;;24.20;99.90;;;;;;4964714;28;20048;-74
2023/09/26 10:42:48;;;;;;;9.15;6.07;;;24.20;99.90;;;;;;4962695;28;20420;-78
2023/09/26 10:45:15;;;;;;;;;;;24.30;99.90;;;;;;4997018;28;20038;-74
2023/09/26 10:47:41;;;;;;;6.22;4.57;;;24.40;99.90;;;;;;4981926;28;19910;-74
2023/09/26 10:50:12;;;;;;;4.28;2.78;;;24.50;99.90;;;;;;4980236;28;20033;-75
2023/09/26 10:52:46;;;;;;;9.75;6.72;;;24.50;99.90;;;;;;4997505;28;20029;-74
2023/09/26 10:55:19;;;;;;;7.05;4.22;;;24.40;99.90;;;;;;5000109;28;20060;-73
2023/09/26 10:57:46;;;;;;;5.20;2.55;;;24.40;99.90;;;;;;4981737;28;20238;-74
2023/09/26 11:00:14;;;;;;;7.43;2.42;;;24.40;99.90;;;;;;4979563;28;20038;-74
2023/09/26 11:02:42;;;;;;;3.50;2.25;;;24.30;99.90;;;;;;4979600;28;20042;-75
2023/09/26 11:05:12;;;;;;;3.78;2.90;;;24.20;99.90;;;;;;4996255;28;20476;-74
2023/09/26 11:07:39;;;;;;;3.92;3.00;;;24.10;99.90;;;;;;4979711;28;20038;-76
2023/09/26 11:10:14;;;;;;;7.68;6.20;;;24.20;99.90;;;;;;4979806;28;20041;-76
2023/09/26 11:12:41;;;;;;;5.72;4.68;;;24.20;99.90;;;;;;4979713;28;20026;-79
2023/09/26 11:15:08;;;;;;;4.22;2.97;;;24.30;99.90;;;;;;4981566;28;20526;-75
2023/09/26 11:17:39;;;;;;;2.80;2.15;;;24.40;99.90;;;;;;4996190;28;20548;-74
2023/09/26 11:20:09;;;;;;;10.15;3.50;;;24.60;99.90;;;;;;4995840;28;20030;-74
2023/09/26 11:22:51;;;;;;;2.75;1.92;;;24.80;99.90;;;;;;4996245;28;20385;-74
2023/09/26 11:25:18;;;;;;;4.07;2.22;;;25.20;99.90;;;;;;4981890;28;20045;-75
2023/09/26 11:27:48;;;;;;;2.20;1.40;;;25.60;99.90;;;;;;4982100;28;20034;-74
2023/09/26 11:30:20;;;;;;;2.08;1.48;;;25.80;99.90;;;;;;4996550;28;20064;-74
2023/09/26 11:32:50;;;;;;;2.28;1.65;;;25.80;99.90;;;;;;4996732;28;20040;-74
2023/09/26 11:35:17;;;;;;;2.40;1.80;;;26.00;99.90;;;;;;4997979;28;20425;-74
2023/09/26 11:37:51;;;;;;;3.40;1.40;;;26.20;99.90;;;;;;4995932;28;20582;-74
2023/09/26 11:40:27;;;;;;;2.90;2.20;;;26.20;99.90;;;;;;5011507;28;20034;-75
2023/09/26 11:42:57;;;;;;;2.55;1.63;;;26.20;99.90;;;;;;4996663;28;20495;-74
2023/09/26 11:45:26;;;;;;;4.05;2.10;;;26.10;99.90;;;;;;4996064;28;20400;-74
2023/09/26 11:47:54;;;;;;;3.72;1.63;;;26.00;99.90;;;;;;4996271;28;20041;-74
2023/09/26 11:50:20;;;;;;;3.55;1.80;;;26.00;99.90;;;;;;4980321;28;20045;-74
2023/09/26 11:52:50;;;;;;;2.50;1.45;;;26.00;99.90;;;;;;4998551;28;20470;-74
2023/09/26 11:55:20;;;;;;;2.95;1.70;;;26.10;99.90;;;;;;4996010;28;20049;-74
2023/09/26 11:57:50;;;;;;;1.90;1.33;;;26.10;99.90;;;;;;4995777;28;20029;-74
2023/09/26 12:00:17;;;;;;;3.20;1.80;;;25.80;99.90;;;;;;4996899;28;20049;-74
2023/09/26 12:02:49;;;;;;;2.33;1.20;;;25.70;99.90;;;;;;4978776;28;20044;-74
2023/09/26 12:05:20;;;;;;;3.38;1.20;;;25.50;99.90;;;;;;4994975;28;20030;-74
2023/09/26 12:07:48;;;;;;;2.90;1.70;;;25.40;99.90;;;;;;4994220;28;20062;-74
2023/09/26 12:10:14;;;;;;;2.28;1.00;;;25.30;99.90;;;;;;4994511;28;20029;-74
2023/09/26 12:12:41;;;;;;;2.65;1.10;;;25.30;99.90;;;;;;4995127;28;20614;-74
2023/09/26 12:15:22;;;;;;;1.77;0.88;;;25.40;99.90;;;;;;4996632;28;20025;-75
2023/09/26 12:17:50;;;;;;;2.38;1.17;;;25.60;99.90;;;;;;5011130;28;20028;-75
2023/09/26 12:20:21;;;;;;;2.90;1.15;;;25.80;99.90;;;;;;4962919;28;20050;-74
2023/09/26 12:22:52;;;;;;;2.08;1.00;;;26.00;99.90;;;;;;4963421;28;20038;-75
2023/09/26 12:25:19;;;;;;;3.22;1.42;;;26.20;99.90;;;;;;4998086;28;20029;-75
2023/09/26 12:27:47;;;;;;;5.57;1.60;;;26.60;99.90;;;;;;4995468;28;20347;-74
2023/09/26 12:30:13;;;;;;;3.40;1.63;;;27.00;99.90;;;;;;4979448;28;21131;-76
2023/09/26 12:32:41;;;;;;;7.78;5.82;;;27.20;99.90;;;;;;4994229;28;20022;-75
2023/09/26 12:35:08;;;;;;;7.30;6.20;;;27.40;99.90;;;;;;4994904;28;20034;-74
2023/09/26 12:37:36;;;;;;;3.50;2.70;;;27.50;99.90;;;;;;4996268;28;20389;-75
2023/09/26 12:40:09;;;;;;;3.65;1.58;;;27.60;99.90;;;;;;4978839;28;20041;-75
2023/09/26 12:42:36;;;;;;;3.30;1.55;;;27.60;99.90;;;;;;4996669;28;20592;-75
2023/09/26 12:45:03;;;;;;;4.25;1.65;;;27.70;99.90;;;;;;4982306;28;20056;-75
2023/09/26 12:47:30;;;;;;;2.65;1.25;;;27.90;99.30;;;;;;4982656;28;20038;-75
2023/09/26 12:49:58;;;;;;;4.32;1.23;;;28.00;99.00;;;;;;4982916;28;20033;-75
2023/09/26 12:52:27;;;;;;;2.17;1.27;;;28.20;98.90;;;;;;5014445;28;22622;-75